Time;durP1;ratioP1;P1;durP2;ratioP2;P2;SDS_P1;SDS_P2;PMS_P1;PMS_P2;Temp;Humidity;BMP_temperature;BMP_pressure;BME280_temperature;BME280_humidity;BME280_pressure;Samples;Min_cycle;Max_cycle;Signal;HPM_P1;HPM_P2
2023/01/24 00:00:13;;;;;;;4.47;4.07;;;;;;;5.86;87.55;95994.56;5028769;28;20207;-64
2023/01/24 00:02:40;;;;;;;5.88;5.28;;;;;;;5.80;87.96;95997.94;5026321;28;20207;-68
2023/01/24 00:05:08;;;;;;;5.43;4.55;;;;;;;5.76;87.53;96008.84;5026108;28;20211;-65
2023/01/24 00:07:34;;;;;;;4.82;4.38;;;;;;;5.80;87.27;96000.44;5030087;28;20722;-64
2023/01/24 00:10:01;;;;;;;4.93;4.50;;;;;;;5.75;87.79;95997.91;5029536;28;20211;-65
2023/01/24 00:12:29;;;;;;;4.88;4.47;;;;;;;5.80;87.12;96005.50;5025585;28;20202;-67
2023/01/24 00:14:57;;;;;;;5.35;4.85;;;;;;;5.83;87.58;96013.06;5028943;28;20264;-65
2023/01/24 00:17:25;;;;;;;4.68;4.28;;;;;;;5.74;88.29;96016.41;5028542;28;20747;-68
2023/01/24 00:19:51;;;;;;;5.38;4.00;;;;;;;5.80;87.21;96005.50;5028283;28;20638;-63
2023/01/24 00:22:18;;;;;;;5.47;4.10;;;;;;;5.80;87.45;96008.84;5028067;28;20319;-62
2023/01/24 00:24:45;;;;;;;4.30;3.90;;;;;;;5.77;87.54;95997.91;5026305;28;20207;-66
2023/01/24 00:27:12;;;;;;;4.93;4.53;;;;;;;5.66;87.11;95987.84;5024506;28;20207;-66
2023/01/24 00:29:39;;;;;;;5.05;3.90;;;;;;;5.71;88.06;96001.28;5027944;28;20203;-66
2023/01/24 00:32:07;;;;;;;4.70;4.30;;;;;;;5.69;87.69;96012.22;5026946;28;20920;-69
2023/01/24 00:34:34;;;;;;;4.15;3.75;;;;;;;5.72;88.27;96007.16;5029879;28;20268;-69
2023/01/24 00:37:01;;;;;;;8.35;4.15;;;;;;;5.79;87.65;96018.94;5027650;28;20975;-62
2023/01/24 00:39:27;;;;;;;3.67;3.30;;;;;;;5.68;87.46;96013.91;5026383;28;20949;-67
2023/01/24 00:41:54;;;;;;;3.88;3.55;;;;;;;5.71;88.03;96010.53;5024825;28;20793;-64
2023/01/24 00:44:21;;;;;;;3.60;3.30;;;;;;;5.70;87.80;96013.88;5029573;28;20207;-65
2023/01/24 00:46:48;;;;;;;3.80;3.50;;;;;;;5.64;87.89;96016.44;5025835;28;20213;-64
2023/01/24 00:49:16;;;;;;;4.13;3.72;;;;;;;5.63;87.95;96019.78;5026031;28;20207;-65
2023/01/24 00:51:43;;;;;;;6.75;4.80;;;;;;;5.57;88.24;96013.06;5024849;28;20207;-64
2023/01/24 00:54:09;;;;;;;3.95;3.65;;;;;;;5.66;87.19;96017.28;5028573;28;20207;-64
2023/01/24 00:56:36;;;;;;;4.47;4.07;;;;;;;5.63;87.18;96018.09;5029643;28;20222;-65
2023/01/24 00:59:03;;;;;;;4.80;4.40;;;;;;;5.67;88.02;96019.78;5028461;28;20206;-62
2023/01/24 01:01:30;;;;;;;3.67;3.38;;;;;;;5.57;87.82;96022.28;5028354;28;20312;-65
2023/01/24 01:03:57;;;;;;;6.35;4.13;;;;;;;5.59;87.80;96021.47;5028605;28;20684;-64
2023/01/24 01:06:26;;;;;;;4.90;4.50;;;;;;;5.54;88.40;96018.09;5029268;28;20207;-64
2023/01/24 01:08:53;;;;;;;4.53;4.15;;;;;;;5.59;88.10;96018.09;5028851;28;20205;-65
2023/01/24 01:11:20;;;;;;;4.75;4.35;;;;;;;5.59;87.97;96020.63;5028302;28;20207;-64
2023/01/24 01:13:48;;;;;;;5.63;5.07;;;;;;;5.61;88.01;96014.75;5028365;28;20211;-63
2023/01/24 01:16:18;;;;;;;4.72;4.13;;;;;;;5.60;87.49;96017.25;5026994;28;20209;-66
2023/01/24 01:18:46;;;;;;;5.00;4.60;;;;;;;5.58;87.58;96014.75;5026906;28;20264;-64
2023/01/24 01:21:14;;;;;;;5.25;4.80;;;;;;;5.59;87.69;96034.06;5025467;28;20227;-64
2023/01/24 01:23:42;;;;;;;6.35;5.65;;;;;;;5.59;87.84;96034.06;5027837;28;20222;-65
2023/01/24 01:26:14;;;;;;;5.15;4.65;;;;;;;5.56;88.04;96023.13;5027825;28;20256;-67
2023/01/24 01:28:41;;;;;;;7.80;5.72;;;;;;;5.58;87.98;96032.38;5027554;28;20253;-64
2023/01/24 01:31:08;;;;;;;5.18;4.72;;;;;;;5.57;87.79;96032.38;5028203;28;20238;-65
2023/01/24 01:33:35;;;;;;;6.20;5.10;;;;;;;5.63;87.27;96032.41;5027692;28;20218;-63
2023/01/24 01:36:01;;;;;;;5.60;5.20;;;;;;;5.52;88.12;96029.84;5028043;28;20298;-65
2023/01/24 01:38:29;;;;;;;6.22;5.05;;;;;;;5.51;87.65;96027.31;5027260;28;20215;-64
2023/01/24 01:40:58;;;;;;;7.40;4.68;;;;;;;5.48;87.59;96023.97;5028906;28;20226;-65
2023/01/24 01:43:27;;;;;;;6.63;5.35;;;;;;;5.44;87.71;96024.78;5027198;28;20221;-65
2023/01/24 01:45:55;;;;;;;5.93;5.28;;;;;;;5.46;87.92;96020.59;5027841;28;20696;-66
2023/01/24 01:48:35;;;;;;;5.40;4.90;;;;;;;5.45;88.11;96023.94;5027981;28;20688;-68
2023/01/24 01:51:08;;;;;;;4.78;4.22;;;;;;;5.32;88.09;96041.56;5025741;28;20217;-68
2023/01/24 01:53:41;;;;;;;6.43;4.72;;;;;;;5.27;88.12;96031.47;5025211;28;20218;-68
2023/01/24 01:56:16;;;;;;;5.05;4.43;;;;;;;5.13;88.21;95996.19;5028168;28;20209;-67
2023/01/24 01:58:43;;;;;;;4.90;4.45;;;;;;;5.29;87.97;96021.41;5026540;28;20692;-65
2023/01/24 02:01:10;;;;;;;5.90;4.93;;;;;;;5.32;88.42;96031.50;5025445;28;20773;-64
2023/01/24 02:03:40;;;;;;;6.13;5.05;;;;;;;5.37;87.87;96019.75;5024084;28;20207;-65
2023/01/24 02:06:29;;;;;;;5.00;4.50;;;;;;;5.35;87.60;96029.84;5025754;28;20610;-64
2023/01/24 02:08:56;;;;;;;4.40;4.00;;;;;;;5.32;88.26;96027.31;5025994;28;20203;-64
2023/01/24 02:11:40;;;;;;;5.03;4.53;;;;;;;5.37;88.03;96027.31;5026532;28;20203;-65
2023/01/24 02:16:54;;;;;;;5.20;3.92;;;;;;;5.16;88.70;96018.03;5025777;28;20206;-65
2023/01/24 02:19:45;;;;;;;5.68;4.63;;;;;;;5.20;88.93;96011.31;5023538;28;20276;-64
2023/01/24 02:22:17;;;;;;;5.32;4.35;;;;;;;5.24;88.19;96008.78;5024866;28;20285;-63
2023/01/24 02:24:58;;;;;;;5.75;3.85;;;;;;;5.18;88.77;96007.97;5025279;28;20273;-65
2023/01/24 02:27:27;;;;;;;6.00;5.00;;;;;;;5.09;89.06;96011.28;5026689;28;20199;-63
2023/01/24 02:29:55;;;;;;;4.93;4.53;;;;;;;5.08;89.12;96022.19;5027795;28;20285;-66
2023/01/24 02:32:22;;;;;;;4.85;3.72;;;;;;;5.10;88.93;96025.56;5025802;28;20231;-66
2023/01/24 02:34:48;;;;;;;4.93;4.47;;;;;;;5.00;89.32;96018.81;5023889;28;20236;-63
2023/01/24 02:37:15;;;;;;;5.43;4.10;;;;;;;5.07;89.48;96015.47;5018668;28;20738;-65
2023/01/24 02:39:48;;;;;;;4.15;3.85;;;;;;;5.13;88.50;95987.78;5023686;28;20255;-65
2023/01/24 02:42:20;;;;;;;5.43;3.95;;;;;;;5.30;88.56;96013.00;5023159;28;20996;-67
2023/01/24 02:44:54;;;;;;;5.55;4.32;;;;;;;5.23;88.16;96021.38;5024477;28;20213;-66
2023/01/24 02:47:20;;;;;;;4.50;4.13;;;;;;;5.15;89.05;96023.91;5021563;28;20337;-65
2023/01/24 02:49:47;;;;;;;5.30;4.90;;;;;;;5.14;88.51;96019.69;5019895;28;20268;-66
2023/01/24 02:54:58;;;;;;;4.03;3.67;;;;;;;5.22;88.23;96018.03;5023661;28;20206;-65
2023/01/24 03:00:16;;;;;;;4.90;3.92;;;;;;;5.28;87.92;96018.03;5005309;28;20648;-66
2023/01/24 03:02:43;;;;;;;4.07;3.83;;;;;;;5.26;88.75;96014.69;5025667;28;20223;-66
2023/01/24 03:05:11;;;;;;;7.38;4.70;;;;;;;5.30;88.07;96011.34;5025609;28;20261;-66
2023/01/24 03:07:44;;;;;;;3.97;3.67;;;;;;;5.25;88.82;96024.75;5024438;28;20284;-65
2023/01/24 03:10:12;;;;;;;4.18;3.78;;;;;;;5.13;88.45;96012.97;5025544;28;20202;-66
2023/01/24 03:34:45;;;;;;;4.80;4.40;;;;;;;4.81;89.02;96009.50;5025475;28;20210;-68
2023/01/24 03:37:12;;;;;;;3.30;3.10;;;;;;;4.75;89.25;95998.56;5026204;28;20317;-65
2023/01/24 03:39:58;;;;;;;4.63;4.32;;;;;;;4.74;88.79;96009.47;5026117;28;20226;-67
2023/01/24 03:42:26;;;;;;;4.15;3.72;;;;;;;4.66;89.37;95982.59;5026304;28;20222;-66
2023/01/24 03:44:53;;;;;;;3.45;3.15;;;;;;;4.82;88.71;96001.13;5026577;28;20203;-67
2023/01/24 03:47:21;;;;;;;3.47;3.17;;;;;;;4.72;88.80;95996.03;5027063;28;20241;-67
2023/01/24 03:52:32;;;;;;;3.10;2.90;;;;;;;4.76;88.65;96000.25;5048955;28;20206;-68
2023/01/24 03:55:00;;;;;;;4.03;3.60;;;;;;;4.75;88.44;95995.22;5048609;28;20204;-66
2023/01/24 03:57:29;;;;;;;3.40;3.15;;;;;;;4.63;89.07;95990.97;5048132;28;20269;-66
2023/01/24 03:59:56;;;;;;;3.78;3.58;;;;;;;4.65;89.02;96006.94;5048482;28;20225;-66
2023/01/24 04:02:24;;;;;;;3.20;2.90;;;;;;;4.66;89.20;95997.72;5052323;28;20285;-66
2023/01/24 04:07:35;;;;;;;3.47;3.27;;;;;;;4.64;88.74;95992.66;5051916;28;20233;-66
2023/01/24 04:10:01;;;;;;;3.60;3.40;;;;;;;4.65;88.77;95991.00;5051221;28;20195;-67
2023/01/24 04:12:28;;;;;;;3.78;3.50;;;;;;;4.63;89.41;95988.47;5050600;28;20693;-67
2023/01/24 04:14:55;;;;;;;5.05;3.63;;;;;;;4.60;89.51;95988.44;5044211;28;20257;-67
2023/01/24 04:17:22;;;;;;;4.35;3.92;;;;;;;4.56;89.47;95996.81;5045902;28;20199;-65
2023/01/24 04:19:50;;;;;;;5.18;4.18;;;;;;;4.59;89.72;95996.00;5050629;28;20222;-66
2023/01/24 04:22:17;;;;;;;3.75;3.42;;;;;;;4.52;89.84;96000.16;5051004;28;20219;-67
2023/01/24 04:24:45;;;;;;;4.00;3.60;;;;;;;4.49;89.60;96005.16;5052488;28;20195;-67
2023/01/24 04:27:12;;;;;;;3.50;3.20;;;;;;;4.52;89.84;95991.75;5052411;28;20681;-72
2023/01/24 04:29:39;;;;;;;3.63;3.43;;;;;;;4.59;89.44;95986.75;5052478;28;20207;-66
2023/01/24 04:32:06;;;;;;;3.40;3.20;;;;;;;4.58;89.14;95979.22;5050314;28;20262;-67
2023/01/24 04:34:33;;;;;;;4.18;3.88;;;;;;;4.60;89.19;95996.00;5052030;28;20203;-66
2023/01/24 04:37:01;;;;;;;3.92;3.63;;;;;;;4.50;89.70;95991.75;5051942;28;20700;-66
2023/01/24 04:39:30;;;;;;;3.57;3.27;;;;;;;4.50;89.51;96000.97;5051898;28;20583;-69
2023/01/24 04:41:57;;;;;;;3.80;3.47;;;;;;;4.45;89.43;95993.44;5051826;28;20649;-67
2023/01/24 04:44:24;;;;;;;4.18;3.88;;;;;;;4.43;89.35;95995.94;5051962;28;20295;-67
2023/01/24 04:46:51;;;;;;;3.78;3.53;;;;;;;4.61;89.43;96000.19;5051817;28;20210;-67
2023/01/24 04:49:18;;;;;;;4.07;3.70;;;;;;;4.52;89.11;96000.16;5051730;28;20202;-67
2023/01/24 04:51:47;;;;;;;4.28;3.97;;;;;;;4.39;89.27;96023.59;5052174;28;20230;-67
2023/01/24 04:54:15;;;;;;;2.75;2.55;;;;;;;4.36;90.20;95999.25;5044809;28;20206;-67
2023/01/24 04:56:42;;;;;;;3.75;3.40;;;;;;;4.45;89.65;96008.53;5051249;28;20672;-66
2023/01/24 04:59:09;;;;;;;4.35;3.35;;;;;;;4.39;89.79;96000.94;5051423;28;20268;-64
2023/01/24 05:01:36;;;;;;;8.88;4.78;;;;;;;4.38;89.77;96007.66;5051358;28;20636;-68
2023/01/24 05:04:02;;;;;;;3.08;2.95;;;;;;;4.40;89.53;96005.13;5051264;28;20206;-67
2023/01/24 05:06:30;;;;;;;3.70;3.40;;;;;;;4.20;89.12;95991.63;5051308;28;20277;-69
2023/01/24 05:08:57;;;;;;;3.33;3.03;;;;;;;4.36;89.33;96004.28;5051204;28;20202;-67
2023/01/24 05:11:26;;;;;;;2.70;2.50;;;;;;;4.32;89.42;96022.69;5051326;28;20207;-68
2023/01/24 05:13:53;;;;;;;2.88;2.67;;;;;;;4.35;89.38;96019.38;5051009;28;20199;-68
2023/01/24 05:16:20;;;;;;;3.17;2.35;;;;;;;4.33;89.62;96018.50;5051331;28;20203;-67
2023/01/24 05:18:47;;;;;;;3.42;3.22;;;;;;;4.23;89.16;96012.56;5051444;28;20213;-67
2023/01/24 05:21:16;;;;;;;3.03;2.72;;;;;;;4.25;89.44;96022.66;5045881;28;20598;-64
2023/01/24 05:23:48;;;;;;;4.57;2.55;;;;;;;4.24;89.25;96013.41;5044447;28;20659;-66
2023/01/24 05:26:15;;;;;;;2.87;2.67;;;;;;;4.30;88.87;96041.97;5044645;28;20195;-66
2023/01/24 05:28:44;;;;;;;3.03;2.73;;;;;;;4.32;89.09;96042.00;5049860;28;20206;-66
2023/01/24 05:31:11;;;;;;;2.85;2.65;;;;;;;4.36;89.28;96049.56;5051432;28;20234;-68
2023/01/24 05:33:37;;;;;;;3.20;2.90;;;;;;;4.37;89.21;96060.47;5050363;28;20596;-67
2023/01/24 05:36:07;;;;;;;3.33;3.03;;;;;;;4.28;89.32;96065.44;5051657;28;20198;-68
2023/01/24 05:38:34;;;;;;;3.23;2.70;;;;;;;4.21;89.88;96067.06;5050840;28;20206;-67
2023/01/24 05:41:01;;;;;;;3.10;2.90;;;;;;;4.23;89.86;96060.38;5040201;28;20203;-69
2023/01/24 05:43:28;;;;;;;3.10;2.90;;;;;;;4.26;89.32;96059.56;5050823;28;20223;-65
2023/01/24 05:46:00;;;;;;;3.50;3.20;;;;;;;4.19;89.74;96056.19;5050647;28;20260;-68
2023/01/24 05:48:27;;;;;;;3.17;2.97;;;;;;;4.24;89.78;96073.81;5050324;28;20294;-67
2023/01/24 05:50:58;;;;;;;3.20;3.00;;;;;;;4.22;89.84;96065.41;5050128;28;20641;-65
2023/01/24 05:53:25;;;;;;;4.50;4.10;;;;;;;4.27;89.71;96068.78;5050448;28;20843;-64
2023/01/24 05:55:56;;;;;;;4.65;4.13;;;;;;;4.30;89.01;96068.81;5043684;28;20203;-67
2023/01/24 05:58:23;;;;;;;4.25;3.95;;;;;;;4.34;89.56;96073.03;5049076;28;20199;-65
2023/01/24 06:00:50;;;;;;;5.10;4.70;;;;;;;4.34;89.68;96073.03;5050590;28;20290;-69
2023/01/24 06:03:18;;;;;;;5.03;4.53;;;;;;;4.44;89.09;96077.31;5049938;28;20661;-67
2023/01/24 06:05:49;;;;;;;5.38;4.70;;;;;;;4.32;89.14;96072.19;5049841;28;20677;-66
2023/01/24 06:08:16;;;;;;;5.40;4.73;;;;;;;4.35;89.01;96088.16;5050407;28;20195;-67
2023/01/24 06:10:43;;;;;;;5.20;4.70;;;;;;;4.47;89.11;96092.41;5050864;28;20217;-70
2023/01/24 06:13:10;;;;;;;5.30;4.85;;;;;;;4.48;88.76;96088.22;5038421;28;20195;-67
2023/01/24 06:15:38;;;;;;;6.13;5.53;;;;;;;4.58;88.43;96105.91;5049875;28;20207;-66
2023/01/24 06:18:05;;;;;;;4.82;4.35;;;;;;;4.62;88.06;96092.53;5050422;28;20203;-70
2023/01/24 06:20:34;;;;;;;5.45;5.03;;;;;;;4.50;88.36;96104.19;5050322;28;20260;-67
2023/01/24 06:23:04;;;;;;;4.40;3.80;;;;;;;4.48;88.34;96101.66;5050218;28;20285;-67
2023/01/24 06:25:32;;;;;;;4.53;4.22;;;;;;;4.36;88.81;96096.53;5048879;28;20215;-68
2023/01/24 06:27:59;;;;;;;6.97;4.50;;;;;;;4.30;89.27;96094.81;5050074;28;20206;-67
2023/01/24 06:30:27;;;;;;;5.45;4.95;;;;;;;4.37;89.36;96104.09;5049390;28;20660;-67
2023/01/24 06:33:16;;;;;;;4.70;4.32;;;;;;;4.25;89.53;96095.63;5049782;28;20284;-69
2023/01/24 06:35:56;;;;;;;3.88;3.58;;;;;;;4.29;89.23;96117.47;5047113;28;20191;-68
2023/01/24 06:38:25;;;;;;;4.53;4.13;;;;;;;4.25;90.00;96120.78;5049871;28;20328;-67
2023/01/24 06:40:56;;;;;;;4.85;4.45;;;;;;;4.06;90.84;96122.31;5049574;28;20214;-66
2023/01/24 06:43:24;;;;;;;4.28;3.67;;;;;;;4.07;90.95;96117.28;5049488;28;20661;-68
2023/01/24 06:45:51;;;;;;;7.77;4.97;;;;;;;3.87;91.11;96135.56;5049683;28;20488;-70
2023/01/24 06:48:18;;;;;;;3.85;3.55;;;;;;;3.88;91.81;96134.72;5049383;28;20669;-71
2023/01/24 06:50:47;;;;;;;4.60;3.63;;;;;;;3.92;92.00;96131.41;5049703;28;20610;-67
2023/01/24 06:53:14;;;;;;;6.60;4.80;;;;;;;3.99;91.85;96125.59;5049198;28;20207;-69
2023/01/24 06:55:45;;;;;;;3.80;3.47;;;;;;;4.03;91.98;96125.63;5049345;28;20919;-66
2023/01/24 06:58:11;;;;;;;6.70;3.95;;;;;;;3.92;91.55;96134.78;5047734;28;20326;-68
2023/01/24 07:00:38;;;;;;;3.33;3.13;;;;;;;3.84;91.73;96136.38;5041595;28;20204;-70
2023/01/24 07:03:07;;;;;;;4.28;3.80;;;;;;;3.92;92.10;96134.78;5046899;28;20223;-68
2023/01/24 07:05:35;;;;;;;3.85;3.60;;;;;;;3.84;92.72;96112.91;5049372;28;20748;-68
2023/01/24 07:08:04;;;;;;;4.10;3.80;;;;;;;4.01;92.03;96141.53;5049843;28;20195;-70
2023/01/24 07:10:30;;;;;;;3.13;2.92;;;;;;;3.95;92.15;96147.38;5049616;28;20672;-67
2023/01/24 07:12:57;;;;;;;3.55;3.30;;;;;;;3.81;92.29;96143.88;5049450;28;20687;-66
2023/01/24 07:15:24;;;;;;;3.33;3.13;;;;;;;3.89;92.31;96146.47;5049968;28;20203;-70
2023/01/24 07:17:51;;;;;;;3.95;3.65;;;;;;;3.84;91.64;96153.97;5049413;28;20704;-66
2023/01/24 07:20:19;;;;;;;3.45;3.22;;;;;;;3.80;92.34;96154.75;5042074;28;20203;-69
2023/01/24 07:22:46;;;;;;;6.63;5.03;;;;;;;3.89;92.20;96157.38;5048799;28;20223;-69
2023/01/24 07:25:17;;;;;;;5.35;4.85;;;;;;;3.86;91.90;96144.78;5049321;28;20711;-70
2023/01/24 07:27:45;;;;;;;5.38;4.88;;;;;;;3.79;92.37;96149.72;5044137;28;20203;-68
2023/01/24 07:30:13;;;;;;;4.38;4.07;;;;;;;3.79;92.89;96155.59;5049431;28;20643;-66
2023/01/24 07:32:40;;;;;;;7.53;4.72;;;;;;;3.76;92.52;96161.44;5049192;28;20226;-70
2023/01/24 07:35:08;;;;;;;5.50;4.75;;;;;;;3.72;92.96;96153.84;5049464;28;20268;-67
2023/01/24 07:37:35;;;;;;;5.88;5.38;;;;;;;3.92;92.79;96157.41;5053232;28;20260;-69
2023/01/24 07:40:02;;;;;;;5.57;5.13;;;;;;;3.92;92.35;96157.41;5052816;28;20223;-67
2023/01/24 07:42:30;;;;;;;4.80;4.40;;;;;;;3.83;92.07;96162.34;5053355;28;20199;-69
2023/01/24 07:44:58;;;;;;;4.25;3.95;;;;;;;3.83;92.41;96158.97;5052727;28;20711;-68
2023/01/24 07:47:26;;;;;;;7.05;4.00;;;;;;;3.89;92.58;96162.41;5052873;28;20643;-70
2023/01/24 07:49:53;;;;;;;5.50;4.20;;;;;;;3.94;92.09;96168.34;5053169;28;20253;-68
2023/01/24 07:52:19;;;;;;;5.32;4.85;;;;;;;3.80;92.36;96172.34;5053058;28;20257;-67
2023/01/24 07:54:46;;;;;;;3.47;3.17;;;;;;;3.76;92.62;96185.72;5052078;28;20206;-68
2023/01/24 07:57:15;;;;;;;4.47;4.07;;;;;;;3.75;92.89;96179.00;5053066;28;20203;-69
2023/01/24 07:59:43;;;;;;;4.43;3.95;;;;;;;3.69;93.24;96181.47;5045188;28;20203;-67
2023/01/24 08:02:10;;;;;;;5.88;4.18;;;;;;;3.74;93.53;96192.41;5052700;28;20199;-68
2023/01/24 08:04:37;;;;;;;3.85;3.33;;;;;;;3.83;91.65;96182.47;5052380;28;20223;-69
2023/01/24 08:07:20;;;;;;;4.15;3.83;;;;;;;3.85;90.56;96185.81;5052773;28;20269;-69
2023/01/24 08:09:48;;;;;;;4.28;3.97;;;;;;;3.95;90.44;96192.66;5052332;28;20195;-70
2023/01/24 08:12:15;;;;;;;6.75;4.00;;;;;;;3.93;91.55;96189.28;5048411;28;20214;-69
2023/01/24 08:14:43;;;;;;;5.00;3.67;;;;;;;3.93;91.82;96189.28;5052109;28;20207;-69
2023/01/24 08:17:10;;;;;;;3.70;3.47;;;;;;;3.83;91.81;96192.50;5052690;28;20236;-66
2023/01/24 08:19:37;;;;;;;6.63;3.53;;;;;;;3.84;92.09;96195.88;5051952;28;20226;-69
2023/01/24 08:22:04;;;;;;;4.35;3.83;;;;;;;3.85;92.22;96190.88;5052308;28;20289;-67
2023/01/24 08:24:31;;;;;;;5.18;4.35;;;;;;;3.92;92.44;96187.59;5052026;28;20902;-71
2023/01/24 08:26:59;;;;;;;4.10;3.70;;;;;;;3.83;91.32;96192.50;5052104;28;20199;-69
2023/01/24 08:29:25;;;;;;;5.43;4.88;;;;;;;4.04;91.91;96187.69;5052239;28;20680;-66
2023/01/24 08:31:53;;;;;;;3.95;3.65;;;;;;;4.07;90.95;96195.28;5051791;28;20316;-68
2023/01/24 08:34:20;;;;;;;4.75;3.78;;;;;;;4.04;90.14;96190.22;5052061;28;20681;-68
2023/01/24 08:36:47;;;;;;;4.63;4.18;;;;;;;3.94;90.54;96180.06;5051701;28;20211;-69
2023/01/24 08:39:14;;;;;;;4.57;3.80;;;;;;;3.99;89.88;96189.31;5052160;28;20218;-69
2023/01/24 08:41:45;;;;;;;6.93;4.47;;;;;;;4.07;90.21;96197.78;5051952;28;20211;-66
2023/01/24 08:44:12;;;;;;;5.50;4.80;;;;;;;4.12;90.26;96204.53;5051664;28;20712;-66
2023/01/24 08:46:39;;;;;;;4.70;4.30;;;;;;;3.99;90.54;96199.38;5051155;28;20265;-66
2023/01/24 08:49:07;;;;;;;4.38;3.83;;;;;;;4.04;90.15;96191.88;5051247;28;20265;-71
2023/01/24 08:51:34;;;;;;;4.57;4.17;;;;;;;4.03;89.89;96191.03;5051667;28;20261;-69
2023/01/24 08:54:01;;;;;;;5.10;3.22;;;;;;;4.13;89.72;96191.97;5051634;28;20676;-69
2023/01/24 08:56:27;;;;;;;7.43;4.88;;;;;;;4.07;89.89;96187.72;5042420;28;20681;-67
2023/01/24 08:58:54;;;;;;;4.38;4.07;;;;;;;4.03;89.90;96198.59;5051369;28;20651;-69
2023/01/24 09:01:21;;;;;;;3.40;3.13;;;;;;;4.20;89.24;96193.72;5051119;28;20222;-69
2023/01/24 09:03:48;;;;;;;4.55;3.47;;;;;;;4.33;88.99;96189.63;5051424;28;20227;-70
2023/01/24 09:06:17;;;;;;;3.35;3.15;;;;;;;4.37;88.23;96191.34;5051406;28;20199;-71
2023/01/24 09:08:43;;;;;;;3.13;2.85;;;;;;;4.38;87.72;96181.28;5051740;28;20203;-69
2023/01/24 09:11:10;;;;;;;3.58;3.28;;;;;;;4.44;87.91;96188.91;5051212;28;20249;-71
2023/01/24 09:13:37;;;;;;;3.60;3.30;;;;;;;4.37;87.11;96181.28;5051471;28;20264;-70
2023/01/24 09:16:04;;;;;;;5.80;3.40;;;;;;;4.49;87.20;96186.41;5051463;28;20590;-70
2023/01/24 09:18:31;;;;;;;2.97;2.78;;;;;;;4.37;87.27;96197.22;5042082;28;20594;-69
2023/01/24 09:21:01;;;;;;;3.40;2.97;;;;;;;4.36;86.71;96190.50;5034994;28;20656;-67
2023/01/24 09:23:30;;;;;;;4.32;3.20;;;;;;;4.40;87.56;96196.41;5051305;28;20314;-68
2023/01/24 09:25:57;;;;;;;3.97;3.38;;;;;;;4.34;87.43;96201.38;5050836;28;20568;-71
2023/01/24 09:28:23;;;;;;;4.03;3.63;;;;;;;4.42;86.91;96194.75;5051306;28;20680;-70
2023/01/24 09:30:51;;;;;;;4.43;4.03;;;;;;;4.43;87.07;96196.44;5041043;28;20249;-68
2023/01/24 09:33:19;;;;;;;4.07;3.67;;;;;;;4.66;87.01;96194.09;5038774;28;20212;-68
2023/01/24 09:35:56;;;;;;;4.45;3.83;;;;;;;4.85;86.42;96195.06;5046032;28;20222;-70
2023/01/24 09:38:24;;;;;;;3.55;3.20;;;;;;;5.06;84.90;96191.00;5036653;28;20258;-68
2023/01/24 09:40:57;;;;;;;4.50;3.75;;;;;;;5.04;83.90;96191.81;5050843;28;20304;-70
2023/01/24 09:43:41;;;;;;;3.55;3.35;;;;;;;5.04;84.31;96197.69;5051025;28;20219;-68
2023/01/24 09:46:25;;;;;;;3.97;3.67;;;;;;;5.29;83.74;96190.28;5040185;28;20696;-70
2023/01/24 09:48:59;;;;;;;4.07;3.88;;;;;;;5.57;82.47;96193.75;5049414;28;20688;-70
2023/01/24 09:51:30;;;;;;;2.72;2.63;;;;;;;5.16;81.82;96201.13;5051008;28;20203;-68
2023/01/24 09:54:01;;;;;;;3.67;3.38;;;;;;;4.95;83.70;96197.63;5050870;28;20198;-69
2023/01/24 09:56:35;;;;;;;3.78;3.47;;;;;;;5.10;83.65;96181.78;5044233;28;20218;-68
2023/01/24 09:59:14;;;;;;;3.75;3.45;;;;;;;5.37;84.17;96181.91;5033153;28;20207;-68
2023/01/24 10:01:41;;;;;;;3.40;3.10;;;;;;;5.51;82.97;96183.63;5039582;28;20289;-69
2023/01/24 10:04:17;;;;;;;3.30;3.10;;;;;;;5.61;82.58;96180.34;5047806;28;20301;-66
2023/01/24 10:07:12;;;;;;;3.33;3.13;;;;;;;5.79;82.32;96176.19;5038755;28;20673;-73
2023/01/24 10:09:49;;;;;;;3.60;3.30;;;;;;;6.01;81.45;96178.78;5012872;28;20210;-67
2023/01/24 10:12:32;;;;;;;4.15;3.85;;;;;;;6.01;79.99;96177.09;5026105;28;20215;-64
2023/01/24 10:15:11;;;;;;;3.03;2.83;;;;;;;6.05;79.40;96183.00;5026702;28;20203;-68
2023/01/24 10:17:56;;;;;;;2.53;2.42;;;;;;;5.77;79.60;96167.75;5026575;28;20222;-65
2023/01/24 10:20:40;;;;;;;2.80;2.33;;;;;;;5.23;81.80;96168.41;5026139;28;20214;-67
2023/01/24 10:23:11;;;;;;;2.65;2.45;;;;;;;5.07;82.29;96169.16;5027371;28;20218;-69
2023/01/24 10:25:51;;;;;;;3.17;2.97;;;;;;;4.78;83.93;96162.28;5028830;28;20190;-68
2023/01/24 10:28:24;;;;;;;2.38;2.17;;;;;;;4.92;83.76;96148.94;5026983;28;20293;-68
2023/01/24 10:30:58;;;;;;;3.15;2.90;;;;;;;5.32;82.97;96160.88;5026102;28;20215;-64
2023/01/24 10:33:32;;;;;;;1.98;1.73;;;;;;;5.18;81.49;96154.97;5026579;28;20207;-66
2023/01/24 10:36:04;;;;;;;2.03;1.92;;;;;;;5.04;82.38;96161.59;5027809;28;20296;-66
2023/01/24 10:38:31;;;;;;;1.80;1.70;;;;;;;4.85;82.72;96154.75;5025700;28;20209;-65
2023/01/24 10:41:14;;;;;;;1.80;1.70;;;;;;;4.68;83.27;96160.53;5027050;28;20207;-67
2023/01/24 10:43:44;;;;;;;1.95;1.85;;;;;;;4.79;83.53;96155.56;5028651;28;20264;-67
2023/01/24 10:46:26;;;;;;;1.42;1.40;;;;;;;5.10;82.26;96152.38;5026509;28;20203;-67
2023/01/24 10:48:56;;;;;;;1.98;1.88;;;;;;;5.02;82.33;96153.19;5026081;28;20734;-64
2023/01/24 10:51:25;;;;;;;1.73;1.63;;;;;;;5.06;82.62;96164.97;5026907;28;20207;-69
2023/01/24 10:53:52;;;;;;;1.90;1.80;;;;;;;5.27;81.98;96146.56;5026901;28;20308;-64
2023/01/24 10:56:21;;;;;;;2.10;2.00;;;;;;;5.29;81.92;96153.31;5027497;28;20207;-66
2023/01/24 10:58:59;;;;;;;2.40;2.30;;;;;;;5.26;81.92;96160.00;5027160;28;20218;-68
2023/01/24 11:01:33;;;;;;;1.98;1.80;;;;;;;5.02;82.26;96143.94;5027222;28;20842;-64
2023/01/24 11:04:12;;;;;;;2.07;1.93;;;;;;;4.65;83.57;96145.41;5027465;28;20230;-66
2023/01/24 11:06:40;;;;;;;2.05;1.95;;;;;;;4.60;83.96;96146.22;5026469;28;20217;-67
2023/01/24 11:09:11;;;;;;;2.53;2.33;;;;;;;4.52;84.98;96141.13;5025916;28;20211;-67
2023/01/24 11:11:45;;;;;;;2.50;2.30;;;;;;;4.53;84.45;96147.84;5029607;28;20261;-65
2023/01/24 11:14:17;;;;;;;1.95;1.80;;;;;;;4.52;83.38;96145.31;5030890;28;20217;-69
2023/01/24 11:16:46;;;;;;;2.47;2.27;;;;;;;4.43;84.74;96141.06;5030420;28;20219;-66
2023/01/24 11:19:26;;;;;;;2.47;2.30;;;;;;;4.50;84.85;96121.78;5031424;28;20207;-66
2023/01/24 11:21:54;;;;;;;2.10;2.00;;;;;;;4.75;84.68;96132.03;5030532;28;20260;-65
2023/01/24 11:24:22;;;;;;;1.90;1.73;;;;;;;4.67;83.34;96133.69;5031174;28;20226;-67
2023/01/24 11:26:56;;;;;;;2.08;1.98;;;;;;;4.66;84.29;96126.97;5031852;28;20207;-65
2023/01/24 11:29:25;;;;;;;2.15;1.73;;;;;;;4.73;83.62;96121.09;5031972;28;20207;-66
2023/01/24 11:31:54;;;;;;;2.00;1.90;;;;;;;4.47;84.40;96112.53;5029873;28;20296;-66
2023/01/24 11:34:42;;;;;;;2.47;2.05;;;;;;;4.70;83.73;96128.63;5030390;28;20195;-62
2023/01/24 11:37:26;;;;;;;1.90;1.80;;;;;;;4.70;84.18;96130.34;5031783;28;20211;-65
2023/01/24 11:40:03;;;;;;;3.90;2.43;;;;;;;4.68;84.89;96122.78;5029914;28;20292;-67
2023/01/24 11:42:36;;;;;;;2.38;2.17;;;;;;;4.48;84.19;96129.34;5030773;28;20202;-66
2023/01/24 11:45:26;;;;;;;2.80;2.60;;;;;;;4.30;85.81;96130.06;5029547;28;20751;-67
2023/01/24 11:48:05;;;;;;;2.33;2.13;;;;;;;4.15;85.13;96126.59;5031268;28;20207;-65
2023/01/24 11:50:43;;;;;;;2.83;2.53;;;;;;;4.12;85.77;96129.06;5028595;28;20640;-67
2023/01/24 11:53:36;;;;;;;2.03;1.83;;;;;;;4.16;85.96;96123.25;5030454;28;20586;-64
2023/01/24 11:56:16;;;;;;;1.67;1.58;;;;;;;4.24;85.14;96124.13;5030338;28;20279;-63
2023/01/24 11:59:18;;;;;;;1.63;1.53;;;;;;;4.36;84.91;96127.59;5030118;28;20294;-64
2023/01/24 12:01:54;;;;;;;2.30;2.20;;;;;;;4.50;84.29;96127.69;5029103;28;20650;-65
2023/01/24 12:04:59;;;;;;;1.73;1.63;;;;;;;4.64;83.77;96116.03;5028834;28;20239;-66
2023/01/24 12:07:32;;;;;;;2.05;1.95;;;;;;;4.71;83.30;96119.41;5029294;28;20787;-66
2023/01/24 12:10:08;;;;;;;2.25;1.60;;;;;;;4.67;83.12;96121.09;5029241;28;20567;-66
2023/01/24 12:12:42;;;;;;;2.45;2.28;;;;;;;4.54;83.08;96129.38;5029775;28;20276;-66
2023/01/24 12:15:30;;;;;;;1.20;1.20;;;;;;;4.57;83.40;96124.38;5029320;28;20644;-67
2023/01/24 12:18:16;;;;;;;1.80;1.70;;;;;;;4.69;83.11;96126.13;5030550;28;20203;-66
2023/01/24 12:20:58;;;;;;;1.83;1.73;;;;;;;4.62;82.68;96125.25;5030085;28;20218;-67
2023/01/24 12:23:29;;;;;;;1.53;1.53;;;;;;;4.69;82.76;96124.47;5030130;28;20219;-66
2023/01/24 12:26:01;;;;;;;2.65;2.20;;;;;;;4.71;83.42;96129.47;5029855;28;20235;-67
2023/01/24 12:28:34;;;;;;;3.05;2.10;;;;;;;4.64;83.10;96123.59;5030501;28;20310;-66
2023/01/24 12:31:04;;;;;;;3.87;2.10;;;;;;;4.69;83.86;96121.94;5029982;28;20296;-66